Main page
METAR-TAF:

METAR-TAF

Airports :

George Enescu International Airport

Bacau, Romania

latitude: 46-35N, longitude: 026-58E, elevation: 184 m

Current weather observation

The report was made 27 minutes ago, at 22:00 UTC
Wind 4 kt from the North/Northwest
Temperature 12°C
Humidity 82%
Pressure 1004 hPa
Visibility 10 km or more
Scattered clouds at a height of 6500 ft

METAR: LRBC 242200Z 33004KT 9999 SCT065 12/09 Q1004

Time: 01:27 (22:27 UTC)

Forecast

The report was made 2 hours and 27 minutes ago, at 20:00 UTC
Forecast valid from 24 at 21 UTC to 25 at 06 UTC
Wind 4 kt from variable directions
Visibility 10 km or more
Broken clouds at a height of 5500 ft
Probability 40% :
Temporary
from 24 at 23 UTC to 25 at 05 UTC
Visibility: 3000 m
mist,

TAF: LRBC 242000Z 2421/2506 VRB04KT 9999 BKN055 PROB40 TEMPO 2423/2505 3000 BR

Weather observations and forecasts of more than 4000 airports (METAR and TAF reports).

The available stations are represented by yellow and red dots on the map.

Hover mouse over dot to see the name of the station.

Then click to see weather observations and forecasts.

To change the map : click on the green buttons with a black cross to zoom in, on the green button with a dash to zoom out, or on the green arrows for adjacent maps.


METAR-TAF: